Time;durP1;ratioP1;P1;durP2;ratioP2;P2;SDS_P1;SDS_P2;PMS_P1;PMS_P2;Temp;Humidity;BMP_temperature;BMP_pressure;BME280_temperature;BME280_humidity;BME280_pressure;Samples;Min_cycle;Max_cycle;Signal;HPM_P1;HPM_P2
2022/01/01 00:01:48;;;;;;;17.33;14.37;;;;;;;8.73;100.00;153600.72;4991649;28;20452;-76
2022/01/01 00:04:25;;;;;;;16.37;13.63;;;;;;;8.70;100.00;153592.97;4993150;28;20932;-76
2022/01/01 00:07:00;;;;;;;16.50;13.83;;;;;;;8.66;100.00;153582.66;4991711;28;20437;-76
2022/01/01 00:09:36;;;;;;;18.20;14.67;;;;;;;8.67;100.00;153585.22;4991709;28;20810;-76
2022/01/01 00:12:12;;;;;;;18.53;14.53;;;;;;;8.69;100.00;153591.66;4989651;28;20778;-76
2022/01/01 00:14:48;;;;;;;17.30;13.90;;;;;;;8.70;100.00;153592.97;4988422;28;20799;-76
2022/01/01 00:17:23;;;;;;;16.27;14.13;;;;;;;8.72;100.00;153598.13;4972916;28;20446;-76
2022/01/01 00:20:00;;;;;;;16.07;12.40;;;;;;;8.72;100.00;153598.13;4973407;28;20833;-75
2022/01/01 00:22:36;;;;;;;17.50;12.73;;;;;;;8.74;100.00;153604.59;4957547;28;20427;-75
2022/01/01 00:25:12;;;;;;;16.77;12.50;;;;;;;8.75;100.00;153607.19;4972073;28;20445;-76
2022/01/01 00:27:48;;;;;;;16.23;12.57;;;;;;;8.78;100.00;153613.66;4974745;28;20430;-76
2022/01/01 00:30:23;;;;;;;16.13;11.70;;;;;;;8.77;100.00;153612.34;4976062;28;20442;-75
2022/01/01 00:32:59;;;;;;;13.90;11.67;;;;;;;8.77;100.00;153612.34;4946324;28;20434;-76
2022/01/01 00:35:36;;;;;;;16.23;11.03;;;;;;;8.81;100.00;153621.41;4986167;28;20886;-75
2022/01/01 00:38:11;;;;;;;13.17;10.17;;;;;;;8.83;100.00;153627.88;4995437;28;20445;-76
2022/01/01 00:40:47;;;;;;;14.57;10.07;;;;;;;8.83;100.00;153626.59;4995112;28;20473;-76
2022/01/01 00:43:24;;;;;;;11.40;8.97;;;;;;;8.83;100.00;153627.88;5002874;28;20855;-75
2022/01/01 00:46:00;;;;;;;10.50;8.40;;;;;;;8.82;100.00;153625.28;5016199;28;20451;-75
2022/01/01 00:48:36;;;;;;;9.63;8.03;;;;;;;8.83;100.00;153626.59;5031264;28;20843;-75
2022/01/01 00:51:13;;;;;;;7.50;6.67;;;;;;;8.86;100.00;153634.34;5014628;28;20444;-75
2022/01/01 00:53:48;;;;;;;11.60;7.33;;;;;;;8.89;100.00;153642.13;5010943;28;20456;-76
2022/01/01 00:56:24;;;;;;;7.47;6.10;;;;;;;8.87;100.00;153636.94;4995137;28;20445;-75
2022/01/01 00:59:00;;;;;;;7.30;6.00;;;;;;;8.86;100.00;153634.34;5027751;28;20954;-75
2022/01/01 01:01:36;;;;;;;6.67;5.30;;;;;;;8.85;100.00;153633.03;5011263;28;20429;-75
2022/01/01 01:04:12;;;;;;;7.90;5.80;;;;;;;8.88;100.00;153639.50;5011223;28;20445;-76
2022/01/01 01:06:49;;;;;;;6.63;5.83;;;;;;;8.89;100.00;153642.13;5011385;28;20452;-76
2022/01/01 01:09:25;;;;;;;7.10;5.73;;;;;;;8.93;100.00;153652.44;4994728;28;20540;-76
2022/01/01 01:12:00;;;;;;;8.10;6.17;;;;;;;8.98;100.00;153665.34;5011402;28;20483;-76
2022/01/01 01:14:40;;;;;;;7.27;6.23;;;;;;;9.00;100.00;153670.56;5027636;28;20441;-76
2022/01/01 01:17:16;;;;;;;10.50;7.33;;;;;;;9.01;100.00;153673.13;4994580;28;20445;-76
2022/01/01 01:19:51;;;;;;;9.37;8.43;;;;;;;9.03;100.00;153678.28;4995994;28;20476;-76
2022/01/01 01:22:29;;;;;;;9.87;8.30;;;;;;;9.06;100.00;153686.06;4979836;28;20437;-76
2022/01/01 01:25:05;;;;;;;12.53;9.00;;;;;;;9.08;100.00;153691.25;4996011;28;20441;-76
2022/01/01 01:27:41;;;;;;;9.57;8.57;;;;;;;9.08;100.00;153691.25;4978998;28;20535;-76
2022/01/01 01:30:18;;;;;;;11.00;8.20;;;;;;;9.09;100.00;153693.81;4994524;28;20453;-76
2022/01/01 01:32:53;;;;;;;9.67;8.67;;;;;;;9.12;100.00;153701.59;4979625;28;20943;-76
2022/01/01 01:35:29;;;;;;;10.03;7.63;;;;;;;9.13;100.00;153705.44;4979330;28;20975;-76
2022/01/01 01:38:06;;;;;;;11.17;9.00;;;;;;;9.14;100.00;153706.75;5010669;28;20429;-76
2022/01/01 01:40:41;;;;;;;9.67;8.00;;;;;;;9.14;100.00;153706.75;4994088;28;20493;-76
2022/01/01 01:43:17;;;;;;;11.27;8.87;;;;;;;9.14;100.00;153706.75;5010501;28;20936;-76
2022/01/01 01:45:53;;;;;;;8.77;7.27;;;;;;;9.15;100.00;153710.66;5010673;28;20540;-76
2022/01/01 01:48:28;;;;;;;9.87;8.83;;;;;;;9.17;100.00;153714.50;4979004;28;20473;-76
2022/01/01 01:51:04;;;;;;;10.30;8.17;;;;;;;9.17;100.00;153715.81;4994153;28;20438;-76
2022/01/01 01:53:42;;;;;;;9.60;7.37;;;;;;;9.19;100.00;153719.69;4994004;28;20433;-76
2022/01/01 01:56:17;;;;;;;10.07;6.90;;;;;;;9.21;100.00;153723.59;5010189;28;20437;-76
2022/01/01 01:58:53;;;;;;;8.97;6.90;;;;;;;9.22;100.00;153726.13;4978919;28;20437;-76
2022/01/01 02:01:29;;;;;;;7.60;6.53;;;;;;;9.22;100.00;153727.44;4994904;28;20489;-76
2022/01/01 02:04:05;;;;;;;8.20;6.67;;;;;;;9.22;100.00;153727.44;4993912;28;20449;-76
2022/01/01 02:06:41;;;;;;;9.73;7.50;;;;;;;9.22;100.00;153727.44;5010089;28;20442;-76
2022/01/01 02:09:18;;;;;;;8.80;6.63;;;;;;;9.21;100.00;153723.59;4995218;28;20418;-76
2022/01/01 02:11:54;;;;;;;7.63;6.73;;;;;;;9.19;100.00;153719.69;5009999;28;20535;-76
2022/01/01 02:14:38;;;;;;;8.63;7.00;;;;;;;9.19;100.00;153720.97;4975211;28;20501;-76
2022/01/01 02:17:13;;;;;;;8.93;7.10;;;;;;;9.19;100.00;153720.97;4978382;28;20453;-76
2022/01/01 02:19:54;;;;;;;9.57;7.37;;;;;;;9.18;100.00;153717.13;4993489;28;20469;-76
2022/01/01 02:22:40;;;;;;;11.10;8.07;;;;;;;9.16;100.00;153713.22;4994627;28;20421;-76
2022/01/01 02:25:15;;;;;;;8.80;7.80;;;;;;;9.14;100.00;153706.75;4994796;28;20917;-76
2022/01/01 02:27:51;;;;;;;9.60;8.67;;;;;;;9.14;100.00;153708.03;4993324;28;20448;-76
2022/01/01 02:30:28;;;;;;;9.50;8.30;;;;;;;9.14;100.00;153706.75;4993544;28;20425;-76
2022/01/01 02:33:03;;;;;;;8.70;7.80;;;;;;;9.12;100.00;153701.59;4978221;28;20520;-76
2022/01/01 02:35:39;;;;;;;8.40;6.77;;;;;;;9.12;100.00;153701.59;4994227;28;20467;-76
2022/01/01 02:38:16;;;;;;;9.00;7.30;;;;;;;9.10;100.00;153697.72;4993077;28;20438;-76
2022/01/01 02:40:52;;;;;;;9.60;7.37;;;;;;;9.12;100.00;153701.59;5025960;28;20485;-76
2022/01/01 02:43:28;;;;;;;9.23;8.07;;;;;;;9.13;100.00;153704.19;5009696;28;20437;-76
2022/01/01 02:46:03;;;;;;;7.70;6.30;;;;;;;9.14;100.00;153706.75;5021212;28;20460;-76
2022/01/01 02:48:39;;;;;;;9.07;7.10;;;;;;;9.13;100.00;153705.44;5013490;28;20468;-76
2022/01/01 02:51:14;;;;;;;6.13;5.50;;;;;;;9.14;100.00;153708.03;5021510;28;20453;-76
2022/01/01 02:53:51;;;;;;;6.23;5.50;;;;;;;9.14;100.00;153706.75;5009246;28;20430;-76
2022/01/01 02:56:27;;;;;;;7.50;5.23;;;;;;;9.15;100.00;153709.34;5009226;28;20441;-77
2022/01/01 02:59:02;;;;;;;6.60;5.20;;;;;;;9.16;100.00;153711.91;5009055;28;20429;-76
2022/01/01 03:01:38;;;;;;;7.27;6.03;;;;;;;9.17;100.00;153714.50;5009149;28;20499;-76
2022/01/01 03:04:14;;;;;;;7.33;6.30;;;;;;;9.19;100.00;153719.69;5008953;28;20445;-76
2022/01/01 03:06:53;;;;;;;6.80;5.30;;;;;;;9.19;100.00;153719.69;5009144;28;20433;-76
2022/01/01 03:09:34;;;;;;;7.50;6.23;;;;;;;9.19;100.00;153719.69;5009939;28;20476;-76
2022/01/01 03:12:13;;;;;;;10.10;6.00;;;;;;;9.20;100.00;153722.28;5007737;28;20528;-76
2022/01/01 03:14:48;;;;;;;6.97;6.27;;;;;;;9.21;100.00;153723.59;4998651;28;20545;-76
2022/01/01 03:17:24;;;;;;;8.87;6.20;;;;;;;9.22;100.00;153726.13;4974206;28;20484;-76
2022/01/01 03:19:59;;;;;;;8.00;6.33;;;;;;;9.22;100.00;153726.13;4989196;28;20611;-76
2022/01/01 03:22:35;;;;;;;8.53;6.50;;;;;;;9.24;100.00;153732.59;4974187;28;20419;-76
2022/01/01 03:25:11;;;;;;;9.10;7.73;;;;;;;9.25;100.00;153735.22;4995660;28;20548;-76
2022/01/01 03:27:47;;;;;;;8.00;7.20;;;;;;;9.26;100.00;153737.81;4993355;28;20533;-76
2022/01/01 03:30:22;;;;;;;9.37;6.90;;;;;;;9.25;100.00;153735.22;4993496;28;20441;-76
2022/01/01 03:32:58;;;;;;;9.80;8.80;;;;;;;9.25;100.00;153735.22;4992152;28;20468;-76
2022/01/01 03:35:33;;;;;;;11.07;8.83;;;;;;;9.25;100.00;153735.22;5008699;28;20441;-76
2022/01/01 03:38:09;;;;;;;10.53;9.00;;;;;;;9.23;100.00;153728.75;4992197;28;20449;-76
2022/01/01 03:40:46;;;;;;;9.73;7.50;;;;;;;9.23;100.00;153730.03;4993519;28;20473;-76
2022/01/01 03:43:21;;;;;;;9.17;7.97;;;;;;;9.23;100.00;153728.75;4976741;28;20453;-76
2022/01/01 03:45:56;;;;;;;8.77;7.23;;;;;;;9.22;100.00;153727.44;5019726;28;20441;-76
2022/01/01 03:48:32;;;;;;;11.07;8.70;;;;;;;9.23;100.00;153730.03;5027923;28;20567;-76
2022/01/01 03:51:08;;;;;;;9.03;7.63;;;;;;;9.25;100.00;153733.91;5013073;28;20441;-76
2022/01/01 03:53:43;;;;;;;9.20;8.10;;;;;;;9.20;100.00;153722.28;4995929;28;20656;-76
2022/01/01 03:56:21;;;;;;;10.93;8.97;;;;;;;9.17;100.00;153714.50;5028197;28;20449;-76
2022/01/01 03:58:56;;;;;;;13.30;10.20;;;;;;;9.14;100.00;153706.75;5022970;28;20445;-76
2022/01/01 04:01:32;;;;;;;11.00;9.40;;;;;;;9.09;100.00;153695.13;4990865;28;20465;-76
2022/01/01 04:04:07;;;;;;;12.80;9.27;;;;;;;9.09;100.00;153693.81;5009224;28;20433;-76
2022/01/01 04:06:43;;;;;;;11.87;9.90;;;;;;;9.07;100.00;153689.97;5009161;28;20492;-76
2022/01/01 04:09:19;;;;;;;11.50;9.97;;;;;;;9.03;100.00;153679.59;5007996;28;20799;-76
2022/01/01 04:11:56;;;;;;;10.97;9.83;;;;;;;9.03;100.00;153678.28;5008082;28;20449;-76
2022/01/01 04:14:31;;;;;;;8.97;7.60;;;;;;;9.02;100.00;153675.72;4999869;28;20934;-76
2022/01/01 04:17:07;;;;;;;10.83;9.20;;;;;;;9.02;100.00;153675.72;4986847;28;20453;-76
2022/01/01 04:19:42;;;;;;;8.40;7.60;;;;;;;9.01;100.00;153673.13;4991443;28;20901;-76
2022/01/01 04:22:18;;;;;;;9.20;8.10;;;;;;;9.01;100.00;153674.44;5007906;28;20468;-76
2022/01/01 04:24:54;;;;;;;10.40;7.40;;;;;;;9.00;100.00;153671.81;4992692;28;20500;-76
2022/01/01 04:27:30;;;;;;;9.60;8.10;;;;;;;9.01;100.00;153673.13;4976474;28;20441;-76
2022/01/01 04:30:07;;;;;;;8.40;7.10;;;;;;;9.02;100.00;153675.72;4991581;28;20445;-77
2022/01/01 04:32:42;;;;;;;9.07;7.10;;;;;;;8.98;100.00;153665.34;4991235;28;20883;-76
2022/01/01 04:35:18;;;;;;;8.03;6.13;;;;;;;9.00;100.00;153670.56;5007971;28;20429;-76
2022/01/01 04:37:54;;;;;;;9.23;7.60;;;;;;;9.01;100.00;153673.13;4992772;28;20449;-76
2022/01/01 04:40:29;;;;;;;8.00;6.57;;;;;;;8.99;100.00;153669.25;4991231;28;20476;-76
2022/01/01 04:43:06;;;;;;;7.30;6.60;;;;;;;8.99;100.00;153667.97;4988329;28;20434;-76
2022/01/01 04:45:42;;;;;;;7.90;6.60;;;;;;;8.99;100.00;153669.25;4989859;28;20492;-76
2022/01/01 04:48:17;;;;;;;10.07;7.83;;;;;;;8.97;100.00;153664.09;5011074;28;20504;-76
2022/01/01 04:50:53;;;;;;;10.20;6.90;;;;;;;8.95;100.00;153658.91;4999200;28;20445;-76
2022/01/01 04:53:29;;;;;;;9.20;7.40;;;;;;;8.94;100.00;153655.03;5007429;28;20441;-76
2022/01/01 04:56:07;;;;;;;8.00;6.67;;;;;;;8.94;100.00;153655.03;5006684;28;20540;-76
2022/01/01 04:58:44;;;;;;;9.77;8.07;;;;;;;8.90;100.00;153645.97;4976248;28;20469;-76
2022/01/01 05:01:19;;;;;;;9.23;6.50;;;;;;;8.89;100.00;153643.41;4991425;28;20469;-76
2022/01/01 05:03:57;;;;;;;7.97;6.77;;;;;;;8.86;100.00;153634.34;5007569;28;20433;-76
2022/01/01 05:06:32;;;;;;;6.63;5.63;;;;;;;8.83;100.00;153626.59;5023906;28;20441;-76
2022/01/01 05:09:08;;;;;;;7.50;5.63;;;;;;;8.76;100.00;153608.50;4992364;28;20418;-76
2022/01/01 05:11:43;;;;;;;7.10;5.47;;;;;;;8.70;100.00;153592.97;4992417;28;20409;-76
2022/01/01 05:14:20;;;;;;;8.87;6.10;;;;;;;8.65;100.00;153581.34;5010866;28;20460;-76
2022/01/01 05:16:56;;;;;;;7.43;6.00;;;;;;;8.60;100.00;153567.13;5011213;28;20453;-76
2022/01/01 05:19:32;;;;;;;6.30;5.00;;;;;;;8.55;100.00;153556.75;4979536;28;20528;-76
2022/01/01 05:22:07;;;;;;;8.03;6.13;;;;;;;8.51;100.00;153545.13;5010754;28;20497;-76
2022/01/01 05:24:43;;;;;;;7.10;5.63;;;;;;;8.47;100.00;153536.06;4979152;28;20965;-76
2022/01/01 05:27:19;;;;;;;7.80;7.00;;;;;;;8.43;100.00;153525.75;5009865;28;20426;-76
2022/01/01 05:29:55;;;;;;;5.87;5.27;;;;;;;8.38;100.00;153512.84;5010877;28;20441;-76
2022/01/01 05:32:31;;;;;;;8.60;5.97;;;;;;;8.34;100.00;153502.47;5010994;28;20429;-76
2022/01/01 05:35:07;;;;;;;8.50;6.27;;;;;;;8.32;100.00;153496.00;5010622;28;20456;-76
2022/01/01 05:37:43;;;;;;;9.10;5.87;;;;;;;8.27;100.00;153484.41;4994418;28;20468;-76
2022/01/01 05:40:18;;;;;;;7.50;6.30;;;;;;;8.20;100.00;153466.28;5010666;28;20449;-76
2022/01/01 05:42:54;;;;;;;7.20;6.13;;;;;;;8.14;100.00;153450.75;5009872;28;20519;-76
2022/01/01 05:45:31;;;;;;;9.47;6.97;;;;;;;8.13;100.00;153448.13;5015784;28;20457;-76
2022/01/01 05:48:06;;;;;;;6.87;6.13;;;;;;;8.15;100.00;153452.03;4994064;28;20488;-76
2022/01/01 05:50:42;;;;;;;8.80;6.83;;;;;;;8.15;100.00;153453.34;4994187;28;20974;-77
2022/01/01 05:53:19;;;;;;;6.73;5.90;;;;;;;8.09;100.00;153437.81;5009340;28;20418;-76
2022/01/01 05:55:54;;;;;;;8.50;6.40;;;;;;;8.08;100.00;153435.22;5010264;28;20446;-76
2022/01/01 05:58:31;;;;;;;7.43;6.57;;;;;;;8.09;100.00;153437.81;4995196;28;20444;-76
2022/01/01 06:01:08;;;;;;;8.37;6.43;;;;;;;8.11;100.00;153443.00;4994160;28;20473;-76
2022/01/01 06:03:43;;;;;;;6.90;6.20;;;;;;;8.14;100.00;153449.44;4993786;28;20437;-76
2022/01/01 06:06:19;;;;;;;7.90;6.73;;;;;;;8.13;100.00;153448.13;5009306;28;20433;-76
2022/01/01 06:08:55;;;;;;;7.70;6.00;;;;;;;8.10;100.00;153440.38;5026656;28;20445;-76
2022/01/01 06:11:30;;;;;;;6.83;6.13;;;;;;;8.11;100.00;153443.00;5008716;28;20438;-76
2022/01/01 06:14:06;;;;;;;6.40;5.50;;;;;;;8.11;100.00;153443.00;5010054;28;20461;-76
2022/01/01 06:16:43;;;;;;;7.60;5.60;;;;;;;8.12;100.00;153444.28;4980464;28;20481;-76
2022/01/01 06:19:19;;;;;;;7.23;5.57;;;;;;;8.10;100.00;153440.38;4990299;28;20470;-76
2022/01/01 06:21:54;;;;;;;6.50;5.37;;;;;;;8.10;100.00;153440.38;4973608;28;20458;-76
2022/01/01 06:24:30;;;;;;;6.97;5.70;;;;;;;8.09;100.00;153437.81;4989712;28;20442;-76
2022/01/01 06:27:06;;;;;;;7.20;5.40;;;;;;;8.15;100.00;153453.34;4973947;28;20438;-76
2022/01/01 06:29:42;;;;;;;8.63;5.67;;;;;;;8.15;100.00;153452.03;4990149;28;20450;-76
2022/01/01 06:32:18;;;;;;;8.13;5.77;;;;;;;8.19;100.00;153463.66;4997643;28;20838;-76
2022/01/01 06:34:54;;;;;;;7.17;4.97;;;;;;;8.22;100.00;153471.44;4978358;28;20457;-76
2022/01/01 06:37:30;;;;;;;7.70;4.70;;;;;;;8.25;100.00;153477.88;4993240;28;20441;-76
2022/01/01 06:40:07;;;;;;;5.20;3.77;;;;;;;8.29;100.00;153489.56;4993422;28;20453;-76
2022/01/01 06:42:42;;;;;;;6.23;4.80;;;;;;;8.32;100.00;153496.00;5009212;28;20473;-76
2022/01/01 06:45:18;;;;;;;5.83;4.57;;;;;;;8.33;100.00;153498.63;4993185;28;20452;-76
2022/01/01 06:47:55;;;;;;;6.10;4.70;;;;;;;8.37;100.00;153510.22;5027772;28;20878;-76
2022/01/01 06:50:32;;;;;;;8.27;5.20;;;;;;;8.38;100.00;153512.84;5011296;28;20449;-76
2022/01/01 06:53:08;;;;;;;5.60;4.80;;;;;;;8.41;100.00;153519.28;5009399;28;20438;-76
2022/01/01 06:55:43;;;;;;;4.70;4.23;;;;;;;8.43;100.00;153524.47;5009337;28;20544;-76
2022/01/01 06:58:19;;;;;;;4.83;4.33;;;;;;;8.44;100.00;153527.06;5009262;28;20437;-76
2022/01/01 07:00:55;;;;;;;5.73;4.17;;;;;;;8.43;100.00;153525.75;5009139;28;20850;-76
2022/01/01 07:03:32;;;;;;;6.17;4.50;;;;;;;8.41;100.00;153519.28;5009300;28;20437;-76
2022/01/01 07:06:07;;;;;;;5.43;4.33;;;;;;;8.40;100.00;153518.00;5009130;28;20461;-76
2022/01/01 07:08:43;;;;;;;5.40;4.43;;;;;;;8.43;100.00;153525.75;5008894;28;20492;-76
2022/01/01 07:11:19;;;;;;;5.03;4.27;;;;;;;8.43;100.00;153525.75;5009094;28;20916;-76
2022/01/01 07:13:54;;;;;;;5.20;4.27;;;;;;;8.44;100.00;153527.06;5007792;28;20465;-76
2022/01/01 07:16:30;;;;;;;6.97;4.90;;;;;;;8.43;100.00;153525.75;4991202;28;20446;-76
2022/01/01 07:19:07;;;;;;;5.00;3.97;;;;;;;8.41;100.00;153520.59;4989364;28;20541;-76
2022/01/01 07:21:42;;;;;;;5.60;4.37;;;;;;;8.41;100.00;153520.59;4988816;28;20837;-76
2022/01/01 07:24:18;;;;;;;5.17;4.40;;;;;;;8.43;100.00;153525.75;5003990;28;20440;-76
2022/01/01 07:26:54;;;;;;;6.70;4.50;;;;;;;8.43;100.00;153525.75;4992223;28;20437;-76
2022/01/01 07:29:29;;;;;;;4.90;4.30;;;;;;;8.47;100.00;153536.06;4992144;28;20449;-76
2022/01/01 07:32:05;;;;;;;5.63;4.80;;;;;;;8.48;100.00;153538.69;4992260;28;20441;-76
2022/01/01 07:34:42;;;;;;;4.80;4.03;;;;;;;8.48;100.00;153538.69;5008679;28;20450;-76
2022/01/01 07:37:18;;;;;;;6.53;5.23;;;;;;;8.54;100.00;153552.91;5008396;28;20496;-76
2022/01/01 07:39:53;;;;;;;5.10;4.10;;;;;;;8.61;100.00;153569.69;4976936;28;20489;-76
2022/01/01 07:42:29;;;;;;;4.97;4.43;;;;;;;8.64;100.00;153577.44;5022418;28;20501;-76
2022/01/01 07:45:05;;;;;;;6.20;5.20;;;;;;;8.76;100.00;153609.81;4977348;28;20841;-76
2022/01/01 07:47:41;;;;;;;5.93;4.30;;;;;;;8.84;100.00;153629.19;5026008;28;21062;-76
2022/01/01 07:50:18;;;;;;;6.30;5.10;;;;;;;8.91;100.00;153647.28;5011499;28;20456;-76
2022/01/01 07:52:53;;;;;;;5.90;4.40;;;;;;;8.97;100.00;153662.81;5027899;28;20437;-76
2022/01/01 07:55:29;;;;;;;5.93;4.00;;;;;;;9.03;100.00;153678.28;5028044;28;20444;-76
2022/01/01 07:58:05;;;;;;;4.87;4.40;;;;;;;9.04;100.00;153680.88;5013840;28;20445;-76
2022/01/01 08:00:40;;;;;;;5.10;4.43;;;;;;;9.02;100.00;153675.72;5007161;28;20457;-76
2022/01/01 08:03:16;;;;;;;5.93;5.30;;;;;;;9.01;99.44;153674.44;4993041;28;20453;-76
2022/01/01 08:05:52;;;;;;;5.57;4.73;;;;;;;9.00;99.73;153670.56;4991760;28;20492;-76
2022/01/01 08:08:28;;;;;;;5.87;4.57;;;;;;;9.00;99.52;153671.81;5008065;28;20477;-76
2022/01/01 08:11:03;;;;;;;6.83;6.07;;;;;;;8.93;98.89;153652.44;4993511;28;20767;-76
2022/01/01 08:13:38;;;;;;;5.50;4.90;;;;;;;8.90;98.73;153644.66;5007692;28;20457;-76
2022/01/01 08:16:14;;;;;;;5.53;4.70;;;;;;;8.91;100.00;153647.28;4993083;28;20800;-76
2022/01/01 08:18:50;;;;;;;6.40;4.80;;;;;;;8.92;99.93;153651.13;5007946;28;21112;-76
2022/01/01 08:21:27;;;;;;;5.80;4.30;;;;;;;8.92;99.21;153649.88;5007881;28;20836;-76
2022/01/01 08:24:02;;;;;;;5.20;4.70;;;;;;;8.90;97.92;153645.97;5008063;28;20441;-76
2022/01/01 08:26:38;;;;;;;7.40;5.90;;;;;;;8.88;98.36;153639.50;5008454;28;20437;-76
2022/01/01 08:29:13;;;;;;;6.60;5.30;;;;;;;8.93;99.93;153653.72;5007848;28;20532;-76
2022/01/01 08:31:50;;;;;;;7.27;5.83;;;;;;;8.92;100.00;153651.13;5007874;28;20929;-77
2022/01/01 08:34:26;;;;;;;8.20;5.70;;;;;;;8.90;97.84;153645.97;4976420;28;20442;-76
2022/01/01 08:37:03;;;;;;;6.57;5.37;;;;;;;8.92;97.58;153649.88;5007794;28;20426;-76
2022/01/01 08:39:39;;;;;;;7.53;6.10;;;;;;;8.95;97.20;153658.91;4991461;28;20437;-76
2022/01/01 08:42:14;;;;;;;7.70;6.37;;;;;;;8.98;96.74;153666.66;5007736;28;20478;-76
2022/01/01 08:44:51;;;;;;;6.87;5.47;;;;;;;9.02;96.56;153677.03;5007917;28;20441;-76
2022/01/01 08:47:27;;;;;;;6.30;5.53;;;;;;;9.05;96.43;153683.50;5021792;28;20471;-76
2022/01/01 08:50:02;;;;;;;6.00;5.33;;;;;;;9.08;95.97;153691.25;4996647;28;20441;-76
2022/01/01 08:52:39;;;;;;;6.30;5.50;;;;;;;9.09;95.50;153693.81;4995270;28;20535;-76
2022/01/01 08:55:15;;;;;;;6.13;4.57;;;;;;;9.12;95.25;153701.59;4980205;28;20927;-76
2022/01/01 08:57:50;;;;;;;6.70;4.80;;;;;;;9.15;95.53;153709.34;5010263;28;20433;-76
2022/01/01 09:00:26;;;;;;;5.00;4.30;;;;;;;9.15;95.63;153710.66;5011497;28;20453;-76
2022/01/01 09:03:02;;;;;;;4.80;4.07;;;;;;;9.19;95.85;153720.97;5011267;28;20499;-77
2022/01/01 09:05:37;;;;;;;4.63;4.10;;;;;;;9.21;94.57;153724.88;5011575;28;20452;-76
2022/01/01 09:08:14;;;;;;;5.07;4.33;;;;;;;9.21;94.70;153723.59;5011207;28;20832;-76
2022/01/01 09:10:50;;;;;;;4.80;3.60;;;;;;;9.24;95.06;153732.59;5011354;28;20808;-76
2022/01/01 09:13:25;;;;;;;5.40;4.00;;;;;;;9.28;93.66;153742.97;5009935;28;20465;-76
2022/01/01 09:16:01;;;;;;;4.13;3.40;;;;;;;9.28;93.29;153742.97;4994805;28;20897;-76
2022/01/01 09:18:36;;;;;;;4.20;3.20;;;;;;;9.33;93.42;153754.59;5010822;28;20453;-76
2022/01/01 09:21:13;;;;;;;4.70;3.53;;;;;;;9.39;91.94;153771.44;4979851;28;20445;-76
2022/01/01 09:23:49;;;;;;;6.73;3.80;;;;;;;9.42;93.00;153779.22;4995180;28;20493;-76
2022/01/01 09:26:26;;;;;;;4.50;3.57;;;;;;;9.46;92.23;153789.53;5010934;28;20481;-76
2022/01/01 09:29:01;;;;;;;3.93;2.93;;;;;;;9.50;92.20;153799.91;5012132;28;20469;-76
2022/01/01 09:31:38;;;;;;;3.67;3.07;;;;;;;9.53;92.21;153807.63;5011390;28;20464;-76
2022/01/01 09:34:14;;;;;;;5.40;3.93;;;;;;;9.57;92.77;153818.00;5010591;28;20524;-76
2022/01/01 09:36:51;;;;;;;5.23;2.83;;;;;;;9.63;92.38;153832.25;5010803;28;20437;-77
2022/01/01 09:39:28;;;;;;;3.83;3.27;;;;;;;9.71;92.91;153854.25;5010486;28;20449;-76
2022/01/01 09:42:04;;;;;;;4.00;3.10;;;;;;;9.77;92.64;153869.75;4994442;28;20469;-76
2022/01/01 09:44:40;;;;;;;4.07;3.17;;;;;;;9.79;92.45;153874.91;4995696;28;20929;-76
2022/01/01 09:47:16;;;;;;;4.40;3.57;;;;;;;9.85;93.02;153887.88;5007261;28;20456;-76
2022/01/01 09:49:52;;;;;;;4.90;4.40;;;;;;;9.88;92.82;153895.59;5014703;28;20444;-76
2022/01/01 09:52:27;;;;;;;3.20;2.90;;;;;;;9.91;93.23;153903.38;5030202;28;20520;-76
2022/01/01 09:55:05;;;;;;;5.00;3.37;;;;;;;9.96;93.62;153917.63;5030225;28;20487;-76
2022/01/01 09:57:41;;;;;;;3.90;3.23;;;;;;;9.98;94.36;153921.53;4995766;28;20500;-76
2022/01/01 10:00:16;;;;;;;3.20;2.43;;;;;;;10.01;93.84;153930.56;5010240;28;20464;-76
2022/01/01 10:02:52;;;;;;;4.10;2.80;;;;;;;10.03;93.62;153934.47;5009135;28;20556;-77
2022/01/01 10:05:28;;;;;;;4.03;3.13;;;;;;;10.10;93.54;153952.56;4995524;28;20496;-76
2022/01/01 10:08:03;;;;;;;3.60;3.00;;;;;;;10.16;93.47;153968.16;5011437;28;20453;-76
2022/01/01 10:10:41;;;;;;;4.60;3.37;;;;;;;10.20;93.70;153978.50;5010127;28;20827;-77
2022/01/01 10:13:17;;;;;;;3.23;2.50;;;;;;;10.21;94.16;153982.41;4978525;28;20512;-76
2022/01/01 10:15:54;;;;;;;2.93;2.63;;;;;;;10.22;93.83;153983.66;5024466;28;20441;-77
2022/01/01 10:18:31;;;;;;;4.17;3.00;;;;;;;10.25;94.08;153991.44;5009665;28;20516;-76
2022/01/01 10:21:08;;;;;;;3.87;2.80;;;;;;;10.25;94.39;153991.44;5009977;28;20481;-76
2022/01/01 10:23:46;;;;;;;7.07;2.60;;;;;;;10.30;94.07;154005.69;5009624;28;20461;-76
2022/01/01 10:29:24;;;;;;;6.70;3.30;;;;;;;10.36;94.46;154021.22;4993441;28;20473;-76
2022/01/01 10:32:00;;;;;;;3.20;2.50;;;;;;;10.38;94.80;154026.41;4994715;28;20955;-77
2022/01/01 10:34:37;;;;;;;2.67;2.20;;;;;;;10.43;94.55;154036.78;4994423;28;20438;-77
2022/01/01 10:37:14;;;;;;;3.30;1.90;;;;;;;10.46;94.95;154045.81;5009607;28;20434;-77
2022/01/01 10:39:50;;;;;;;2.93;2.03;;;;;;;10.48;95.02;154049.72;4994444;28;20499;-76
2022/01/01 10:42:27;;;;;;;3.27;2.50;;;;;;;10.51;94.97;154057.50;5009261;28;20473;-76
2022/01/01 10:45:03;;;;;;;2.93;2.17;;;;;;;10.58;94.00;154075.59;5009420;28;20580;-76
2022/01/01 10:47:38;;;;;;;2.73;2.30;;;;;;;10.76;93.42;154122.22;5014347;28;20964;-77
2022/01/01 10:50:15;;;;;;;2.57;2.27;;;;;;;10.88;92.70;154154.56;5009324;28;20445;-77
2022/01/01 10:52:51;;;;;;;4.97;3.07;;;;;;;11.02;91.21;154190.84;4977958;28;20532;-77
2022/01/01 10:55:26;;;;;;;5.50;4.40;;;;;;;11.26;89.32;154250.44;4994214;28;20528;-77
2022/01/01 10:58:03;;;;;;;6.17;4.50;;;;;;;11.23;89.13;154242.66;4994176;28;20422;-77
2022/01/01 11:00:42;;;;;;;5.67;4.80;;;;;;;11.14;89.80;154219.38;5009269;28;20441;-77
2022/01/01 11:03:20;;;;;;;5.80;4.77;;;;;;;11.11;89.64;154211.59;5009040;28;20476;-77
2022/01/01 11:06:04;;;;;;;7.87;6.20;;;;;;;11.05;89.30;154196.03;4989493;28;20537;-77
2022/01/01 11:08:41;;;;;;;8.33;7.07;;;;;;;11.08;88.63;154203.81;4988433;28;20414;-76
2022/01/01 11:11:16;;;;;;;7.53;6.43;;;;;;;11.14;90.15;154219.38;4989198;28;20880;-77
2022/01/01 11:13:53;;;;;;;10.17;7.20;;;;;;;11.07;89.53;154202.50;4958308;28;20422;-77
2022/01/01 11:16:29;;;;;;;10.83;7.70;;;;;;;11.04;89.78;154194.72;4988994;28;20438;-77
2022/01/01 11:19:04;;;;;;;8.77;7.73;;;;;;;10.98;89.37;154179.22;4989277;28;20446;-77
2022/01/01 11:21:40;;;;;;;8.43;7.60;;;;;;;11.07;88.74;154201.25;4983514;28;20464;-76
2022/01/01 11:24:16;;;;;;;8.93;7.47;;;;;;;11.04;88.32;154193.47;5008599;28;20564;-76
2022/01/01 11:26:52;;;;;;;10.20;8.00;;;;;;;10.96;89.09;154175.31;4977309;28;20865;-76
2022/01/01 11:29:29;;;;;;;9.07;7.57;;;;;;;10.85;89.69;154146.84;4992335;28;20511;-77
2022/01/01 11:32:06;;;;;;;10.53;8.70;;;;;;;10.90;89.01;154159.78;4992247;28;20441;-77
2022/01/01 11:34:45;;;;;;;9.30;7.87;;;;;;;11.10;88.04;154208.97;5008553;28;20925;-77
2022/01/01 11:37:22;;;;;;;8.30;7.40;;;;;;;10.94;88.24;154170.13;4992562;28;20445;-77
2022/01/01 11:39:58;;;;;;;8.07;7.17;;;;;;;10.91;89.20;154161.06;4988817;28;20853;-77
2022/01/01 11:42:44;;;;;;;8.43;6.80;;;;;;;10.87;91.27;154152.03;4988192;28;20473;-77
2022/01/01 11:45:44;;;;;;;9.67;7.37;;;;;;;10.91;90.32;154162.34;5008428;28;20544;-77
2022/01/01 11:48:33;;;;;;;9.03;7.40;;;;;;;10.97;90.28;154177.91;5013530;28;20496;-76
2022/01/01 11:51:33;;;;;;;10.30;7.40;;;;;;;10.94;90.47;154170.13;5028151;28;20437;-77
2022/01/01 11:54:19;;;;;;;11.17;7.53;;;;;;;10.97;90.23;154176.59;5027955;28;20642;-77
2022/01/01 11:57:00;;;;;;;8.50;7.70;;;;;;;10.92;90.32;154164.97;5008105;28;20445;-77
2022/01/01 11:59:47;;;;;;;13.23;8.70;;;;;;;10.94;90.72;154168.81;5008177;28;20445;-77
2022/01/01 12:02:32;;;;;;;11.40;8.90;;;;;;;11.01;89.92;154188.25;4976660;28;20449;-77
2022/01/01 12:05:20;;;;;;;11.67;7.60;;;;;;;11.11;89.15;154211.59;5008174;28;20457;-77
2022/01/01 12:07:58;;;;;;;9.13;8.17;;;;;;;11.25;89.23;154249.13;4993153;28;20569;-77
2022/01/01 12:10:36;;;;;;;9.90;8.17;;;;;;;11.33;88.54;154269.84;4993218;28;20437;-77